ADDS TAF Board (Experimental) INFO Settings
IDs: Format: Expanded Condensed

KEWR - Newark Intl, NJ, US

Issued at 0221 UTC 29 Jul 2016
Updated at 0359 UTC 29 Jul 2016
Time0351Z 29/04Z 29/05Z 29/06Z 29/07Z 29/08Z 29/09Z 29/10Z 29/11Z 29/12Z 29/13Z 29/14Z 29/15Z 29/16Z
Type OBS PRVL PRVL PRVL PRVL
  [TEMP]  
PRVL
  [TEMP]  
PRVL
  [TEMP]  
PRVL
  [TEMP]  
PRVL
  [TEMP]  
PRVL
  [TEMP]  
PRVL PRVL PRVL PRVL
VIS 10 >6 6 6 4
  [2]  
4
  [2]  
4
  [2]  
2
  [1]  
2
  [1]  
2
  [1]  
2 2 5 5
CIG 100 90 50 50 15
  [6]  
15
  [6]  
15
  [6]  
12
  [6]  
12
  [6]  
12
  [6]  
12 12 15 15
Cover OVC BKN OVC OVC OVC
  [OVC]  
OVC
  [OVC]  
OVC
  [OVC]  
OVC
  [OVC]  
OVC
  [OVC]  
OVC
  [OVC]  
OVC OVC OVC OVC
FltCat VFR VFR VFR VFR MVFR
  [IFR]  
MVFR
  [IFR]  
MVFR
  [IFR]  
IFR
  [IFR]  
IFR
  [IFR]  
IFR
  [IFR]  
IFR IFR MVFR MVFR
WX -RA -SHRA SHRA SHRA SHRA
  [TSRA]  
SHRA
  [TSRA]  
SHRA
  [TSRA]  
+SHRA BR
  [TSRA]  
+SHRA BR
  [TSRA]  
+SHRA BR
  [TSRA]  
+SHRA BR +SHRA BR -RA BR -RA BR
WDir 350 VRB VRB VRB 100
[100]
100
[100]
100
[100]
90
[90]
90
[90]
90
[90]
90 90 340 340
WSpd 6 4 3 3 6
  [6]  
6
  [6]  
6
  [6]  
8
  [8]  
8
  [8]  
8
  [8]  
8 8 12 12
WGst -- -- -- -- --
  [--]  
--
  [--]  
--
  [--]  
--
  [--]  
--
  [--]  
--
  [--]  
-- -- 18 18
R04/22
XWnd 4 VRB VRB VRB -6 -6 -6 -7 -7 -7 -7 -7 9 9
XGst -- -- -- -- 0 0 0 0 0 0 -- -- 13 13
HWnd 5 VRB VRB VRB 2 2 2 4 4 4 4 4 8 8
HGst -- -- -- -- 0 0 0 0 0 0 -- -- 13 13
R11/29
XWnd 6 VRB VRB VRB -1 -1 -1 1 1 1 1 1 11 11
XGst -- -- -- -- 0 0 0 0 0 0 -- -- 16 16
HWnd -2 VRB VRB VRB 6 6 6 8 8 8 8 8 -5 -5
HGst -- -- -- -- 0 0 0 0 0 0 -- -- -8 -8

Raw TAF
KEWR 290221Z 2902/3006 VRB04KT P6SM -SHRA SCT040 BKN090
  FM290500 VRB03KT 6SM SHRA SCT020 OVC050
  FM290700 10006KT 4SM SHRA SCT006 OVC015
  TEMPO 2907/2910 2SM TSRA OVC006CB
  FM291000 09008KT 2SM +SHRA BR FEW006 OVC012
  TEMPO 2910/2913 1SM TSRA OVC006CB
  FM291500 34012G18KT 5SM -RA BR OVC015
  FM291900 36012KT P6SM BKN040
  FM300000 34005KT P6SM SCT050 BKN250


Raw METAR
KEWR 290351Z 35006KT 10SM -RA FEW040 OVC100 26/22 A2987 RMK AO2 SLP114 P0000 T02560222
KEWR 290251Z VRB05KT 10SM -RA SCT090 OVC120 26/22 A2987 RMK AO2 SLP116 P0000 60000 T02560217 53003
KEWR 290151Z 26006KT 10SM -RA FEW050 SCT090 BKN120 OVC180 26/21 A2986 RMK AO2 SLP112 P0000 T02560206
KEWR 290051Z 29006KT 10SM -RA FEW050 SCT100 BKN130 OVC200 26/20 A2987 RMK AO2 RAE15B47 SLP114 P0000 T02610200

METAR Board
Radar Display
Forecast Discussion

TAF Board Legend

Potential Impact
Threat None Slight Moderate High
Visibility (sm) ≥5.1 5.1>X≥3 3>X≥1 <1
Ceiling (100 ft) ≥30.1 30.1>X≥10 10>X≥5 <5
Wind Speed (kt) <10 10≤X<20 20≤X<30 ≥30
Wind Gust (kt) <15 15≤X<25 25≤X<35 ≥35
Weather No Wx Reported VCTS,-TS,-FZRA,SN TS,FZRA +TS,+FZRA,+SN